Piedra, California
Current Conditions -  °F | °C
As of 5:53 AM on Sunday 25 Jan 2015 (Local Time) from KFAT Reporting Station
Moderate Fog Moderate Fog  
Wind Chill: 41°   Ceiling: 200
Heat Index: 41°   Visibility: 0.12mi
Dew Point: 41°   Wind: 0mph
Humidity: 100%   Direction: NA
Pressure: 30.17"   Gusts: NA
Location:  36.81°N, 119.38°W
Report Text: KFAT 251353Z 00000KT 1/8SM R29R/1400V1600FT FG VV002 05/05 A3017 RMK AO2 SLP217 T00500050 $
Loading
Personal Weather Stations






























Interactive Weather Map New forecast layout! Learn more

10-Day Weather Forecast

Advertisements
Track Severe Weather on mobile